Back to Top

Language: 

My Weather Underground Personal Weather Station Historical Data with Graphs...

Delerius Weather Station Historical Data
Daily Summary for April 17, 2017 Units:  Metric    English   Both
« Previous Day
Next Day »
Daily Weekly Monthly Yearly Custom
  High: Low: Average:
Temperature: 12.2 °C 5.2 °C 7.7 °C
Dew Point: 5.3 °C 1.6 °C 3.7 °C
Humidity: 96 % 49 % 77 %
Wind Speed: 17.7 km/h 0 km/h 4.2 km/h
Wind Gust: 35.4 km/h - -
Wind:- - SSE
Pressure: 1028 hPa 1019.9 hPa -
Precipitation: 0.51 mm    
Historical Graphs
 
 
Tabular Data for April 17, 2017
Time Temperature Dew Point Pressure Wind Wind Speed Wind Gust Humidity Rainfall Rate (Hourly) solar Conditions
00:04 6.1 °C 5.3 °C 1019.9 hPa NE 4.8 km/h 12.9 km/h 95 % 0.25 mm 0 W/m2
00:09 6.1 °C 5.3 °C 1019.9 hPa NE 6.4 km/h 16.1 km/h 95 % 0.51 mm 0 W/m2
00:10 6.1 °C 5.3 °C 1019.9 hPa NE 6.4 km/h 16.1 km/h 95 % 0.51 mm 0 W/m2
00:15 6 °C 5.3 °C 1020.2 hPa NE 6.4 km/h 16.1 km/h 95 % 0.51 mm 0 W/m2
00:20 5.9 °C 5.2 °C 1020.2 hPa NE 6.4 km/h 14.5 km/h 95 % 0.51 mm 0 W/m2
00:25 5.8 °C 5.1 °C 1020.2 hPa ENE 4.8 km/h 14.5 km/h 95 % 0.51 mm 0 W/m2
00:30 5.8 °C 5.1 °C 1020.2 hPa NE 4.8 km/h 12.9 km/h 95 % 0.51 mm 0 W/m2
00:35 5.8 °C 5.1 °C 1020.2 hPa NE 3.2 km/h 12.9 km/h 95 % 0.25 mm 0 W/m2
00:40 5.8 °C 5.1 °C 1020.2 hPa NE 3.2 km/h 9.7 km/h 95 % 0.51 mm 0 W/m2
00:45 5.8 °C 5.1 °C 1020.2 hPa NE 4.8 km/h 16.1 km/h 95 % 0.51 mm 0 W/m2
00:50 5.7 °C 4.9 °C 1020.2 hPa NE 6.4 km/h 16.1 km/h 95 % 0.51 mm 0 W/m2
00:56 5.7 °C 4.9 °C 1020.5 hPa NE 6.4 km/h 16.1 km/h 95 % 0.51 mm 0 W/m2
01:01 5.6 °C 4.9 °C 1020.5 hPa NE 8 km/h 16.1 km/h 95 % 0.51 mm 0 W/m2
01:06 5.5 °C 4.8 °C 1020.5 hPa NE 8 km/h 16.1 km/h 95 % 0.51 mm 0 W/m2
01:11 5.5 °C 4.8 °C 1020.5 hPa NE 4.8 km/h 14.5 km/h 95 % 0.25 mm 0 W/m2
01:16 5.4 °C 4.7 °C 1020.5 hPa ENE 3.2 km/h 9.7 km/h 95 % 0.25 mm 0 W/m2
01:21 5.4 °C 4.7 °C 1020.5 hPa ENE 3.2 km/h 9.7 km/h 95 % 0.25 mm 0 W/m2
01:26 5.3 °C 4.6 °C 1020.5 hPa NE 3.2 km/h 9.7 km/h 95 % 0.25 mm 0 W/m2
01:31 5.3 °C 4.6 °C 1020.5 hPa NNE 3.2 km/h 9.7 km/h 95 % 0.25 mm 0 W/m2
01:36 5.3 °C 4.6 °C 1020.5 hPa NE 4.8 km/h 11.3 km/h 95 % 0.25 mm 0 W/m2
01:41 5.3 °C 4.6 °C 1020.9 hPa NE 4.8 km/h 11.3 km/h 95 % 0 mm 0 W/m2
01:46 5.3 °C 4.6 °C 1020.9 hPa NE 3.2 km/h 8 km/h 95 % 0 mm 0 W/m2
01:51 5.4 °C 4.8 °C 1020.9 hPa NE 3.2 km/h 9.7 km/h 96 % 0 mm 0 W/m2
01:56 5.4 °C 4.7 °C 1020.5 hPa NNE 3.2 km/h 9.7 km/h 95 % 0 mm 0 W/m2
02:01 5.4 °C 4.8 °C 1020.9 hPa NNE 3.2 km/h 9.7 km/h 96 % 0 mm 0 W/m2
02:06 5.5 °C 4.9 °C 1020.5 hPa NNE 3.2 km/h 9.7 km/h 96 % 0 mm 0 W/m2
02:11 5.6 °C 5 °C 1020.5 hPa North 1.6 km/h 9.7 km/h 96 % 0 mm 0 W/m2
02:16 5.5 °C 4.8 °C 1020.5 hPa North 3.2 km/h 9.7 km/h 95 % 0 mm 0 W/m2
02:21 5.4 °C 4.7 °C 1020.9 hPa NNE 4.8 km/h 9.7 km/h 95 % 0 mm 0 W/m2
02:26 5.5 °C 4.8 °C 1020.5 hPa North 4.8 km/h 12.9 km/h 95 % 0 mm 0 W/m2
02:31 5.5 °C 4.8 °C 1020.9 hPa North 4.8 km/h 12.9 km/h 95 % 0 mm 0 W/m2
02:36 5.5 °C 4.8 °C 1020.9 hPa North 4.8 km/h 11.3 km/h 95 % 0 mm 0 W/m2
02:37 5.5 °C 4.8 °C 1020.9 hPa North 4.8 km/h 11.3 km/h 95 % 0 mm 0 W/m2
02:42 5.5 °C 4.8 °C 1020.9 hPa North 4.8 km/h 12.9 km/h 95 % 0 mm 0 W/m2
02:47 5.4 °C 4.7 °C 1020.9 hPa North 4.8 km/h 12.9 km/h 95 % 0 mm 0 W/m2
02:52 5.4 °C 4.7 °C 1020.9 hPa North 4.8 km/h 9.7 km/h 95 % 0 mm 0 W/m2
02:57 5.4 °C 4.7 °C 1020.9 hPa NNE 3.2 km/h 9.7 km/h 95 % 0 mm 0 W/m2
03:02 5.4 °C 4.7 °C 1020.9 hPa NNE 4.8 km/h 11.3 km/h 95 % 0 mm 0 W/m2
03:07 5.3 °C 4.6 °C 1020.9 hPa NNE 4.8 km/h 11.3 km/h 95 % 0 mm 0 W/m2
03:12 5.3 °C 4.6 °C 1020.9 hPa NNE 4.8 km/h 11.3 km/h 95 % 0 mm 0 W/m2
03:17 5.3 °C 4.6 °C 1020.9 hPa NNE 3.2 km/h 11.3 km/h 95 % 0 mm 0 W/m2
03:22 5.3 °C 4.6 °C 1020.9 hPa NNE 3.2 km/h 11.3 km/h 95 % 0 mm 0 W/m2
03:27 5.3 °C 4.6 °C 1021.2 hPa NNE 1.6 km/h 6.4 km/h 95 % 0 mm 0 W/m2
03:32 5.3 °C 4.6 °C 1021.2 hPa NE 1.6 km/h 9.7 km/h 95 % 0 mm 0 W/m2
03:37 5.3 °C 4.6 °C 1021.2 hPa NE 3.2 km/h 9.7 km/h 95 % 0 mm 0 W/m2
03:42 5.3 °C 4.6 °C 1021.2 hPa NNE 1.6 km/h 9.7 km/h 95 % 0 mm 0 W/m2
03:47 5.3 °C 4.6 °C 1021.2 hPa NNE 1.6 km/h 9.7 km/h 95 % 0 mm 0 W/m2
03:52 5.3 °C 4.6 °C 1021.2 hPa NNE 1.6 km/h 9.7 km/h 95 % 0 mm 0 W/m2
03:57 5.3 °C 4.6 °C 1020.9 hPa NNE 3.2 km/h 9.7 km/h 95 % 0 mm 0 W/m2
04:02 5.3 °C 4.6 °C 1020.9 hPa NNE 1.6 km/h 8 km/h 95 % 0 mm 0 W/m2
04:07 5.3 °C 4.6 °C 1021.2 hPa NNE 1.6 km/h 9.7 km/h 95 % 0 mm 0 W/m2
04:12 5.3 °C 4.6 °C 1021.2 hPa NNE 1.6 km/h 9.7 km/h 95 % 0 mm 0 W/m2
04:17 5.3 °C 4.6 °C 1020.9 hPa NNE 1.6 km/h 6.4 km/h 95 % 0 mm 0 W/m2
04:22 5.3 °C 4.6 °C 1021.2 hPa North 3.2 km/h 12.9 km/h 95 % 0 mm 0 W/m2
04:27 5.3 °C 4.6 °C 1021.2 hPa North 4.8 km/h 12.9 km/h 95 % 0 mm 0 W/m2
04:32 5.3 °C 4.6 °C 1021.2 hPa North 3.2 km/h 11.3 km/h 95 % 0 mm 0 W/m2
04:37 5.3 °C 4.6 °C 1021.2 hPa North 4.8 km/h 12.9 km/h 95 % 0 mm 0 W/m2
04:42 5.3 °C 4.6 °C 1021.2 hPa North 4.8 km/h 12.9 km/h 95 % 0 mm 0 W/m2
04:47 5.3 °C 4.6 °C 1021.2 hPa North 3.2 km/h 9.7 km/h 95 % 0 mm 0 W/m2
04:52 5.3 °C 4.6 °C 1021.2 hPa North 3.2 km/h 9.7 km/h 95 % 0 mm 0 W/m2
04:57 5.3 °C 4.6 °C 1021.2 hPa NNW 1.6 km/h 8 km/h 95 % 0 mm 0 W/m2
05:02 5.3 °C 4.6 °C 1021.2 hPa North 3.2 km/h 8 km/h 95 % 0 mm 0 W/m2
05:07 5.3 °C 4.6 °C 1021.2 hPa North 3.2 km/h 8 km/h 95 % 0 mm 0 W/m2
05:12 5.3 °C 4.6 °C 1021.2 hPa North 1.6 km/h 8 km/h 95 % 0 mm 0 W/m2
05:17 5.3 °C 4.6 °C 1021.2 hPa North 1.6 km/h 8 km/h 95 % 0 mm 0 W/m2
05:22 5.3 °C 4.6 °C 1021.6 hPa NNW 3.2 km/h 8 km/h 95 % 0 mm 0 W/m2
05:27 5.3 °C 4.6 °C 1021.6 hPa NNW 1.6 km/h 8 km/h 95 % 0 mm 0 W/m2
05:32 5.3 °C 4.6 °C 1021.6 hPa NNW 1.6 km/h 9.7 km/h 95 % 0 mm 0 W/m2
05:37 5.2 °C 4.4 °C 1021.6 hPa NNW 4.8 km/h 12.9 km/h 95 % 0 mm 0 W/m2
05:42 5.2 °C 4.4 °C 1021.6 hPa NNW 4.8 km/h 12.9 km/h 95 % 0 mm 0 W/m2
05:47 5.2 °C 4.4 °C 1021.6 hPa NNW 4.8 km/h 11.3 km/h 95 % 0 mm 0 W/m2
05:52 5.2 °C 4.4 °C 1021.6 hPa NNW 4.8 km/h 11.3 km/h 95 % 0 mm 0 W/m2
05:57 5.2 °C 4.4 °C 1021.9 hPa NNW 3.2 km/h 8 km/h 95 % 0 mm 5 W/m2
06:02 5.2 °C 4.4 °C 1021.9 hPa NNW 3.2 km/h 9.7 km/h 95 % 0 mm 5 W/m2
06:07 5.2 °C 4.4 °C 1021.9 hPa NNW 4.8 km/h 12.9 km/h 95 % 0 mm 5 W/m2
06:12 5.2 °C 4.4 °C 1021.9 hPa NNW 4.8 km/h 12.9 km/h 95 % 0 mm 5 W/m2
06:17 5.2 °C 4.4 °C 1021.9 hPa North 4.8 km/h 12.9 km/h 95 % 0 mm 7 W/m2
06:22 5.2 °C 4.4 °C 1021.9 hPa North 6.4 km/h 14.5 km/h 95 % 0 mm 11 W/m2
06:30 5.3 °C 4.6 °C 1021.9 hPa North 4.8 km/h 11.3 km/h 95 % 0 mm 14 W/m2
06:35 5.3 °C 4.6 °C 1022.2 hPa North 4.8 km/h 11.3 km/h 95 % 0 mm 18 W/m2
06:40 5.3 °C 4.6 °C 1022.2 hPa North 6.4 km/h 12.9 km/h 95 % 0 mm 21 W/m2
06:45 5.3 °C 4.6 °C 1022.2 hPa North 6.4 km/h 12.9 km/h 95 % 0 mm 23 W/m2
06:50 5.3 °C 4.6 °C 1022.2 hPa North 4.8 km/h 11.3 km/h 95 % 0 mm 25 W/m2
06:55 5.3 °C 4.6 °C 1022.2 hPa NNE 4.8 km/h 11.3 km/h 95 % 0 mm 25 W/m2
07:00 5.3 °C 4.6 °C 1022.2 hPa NNE 3.2 km/h 9.7 km/h 95 % 0 mm 23 W/m2
07:05 5.3 °C 4.6 °C 1022.6 hPa NNE 1.6 km/h 8 km/h 95 % 0 mm 21 W/m2
07:10 5.3 °C 4.6 °C 1022.6 hPa NNE 3.2 km/h 11.3 km/h 95 % 0 mm 23 W/m2
07:15 5.3 °C 4.6 °C 1022.6 hPa NNE 4.8 km/h 11.3 km/h 95 % 0 mm 26 W/m2
07:20 5.3 °C 4.6 °C 1022.6 hPa NNE 3.2 km/h 11.3 km/h 95 % 0 mm 30 W/m2
07:25 5.3 °C 4.6 °C 1022.6 hPa NNE 3.2 km/h 11.3 km/h 95 % 0 mm 37 W/m2
07:30 5.4 °C 4.7 °C 1022.9 hPa NE 3.2 km/h 9.7 km/h 95 % 0 mm 46 W/m2
07:35 5.4 °C 4.7 °C 1022.9 hPa NE 3.2 km/h 11.3 km/h 95 % 0 mm 56 W/m2
07:41 5.4 °C 4.7 °C 1022.9 hPa NE 3.2 km/h 11.3 km/h 95 % 0 mm 63 W/m2
07:46 5.5 °C 4.8 °C 1022.9 hPa NE 3.2 km/h 9.7 km/h 95 % 0 mm 70 W/m2
07:51 5.5 °C 4.8 °C 1022.9 hPa NNE 1.6 km/h 8 km/h 95 % 0 mm 67 W/m2
07:56 5.6 °C 4.9 °C 1023.2 hPa NNE 3.2 km/h 9.7 km/h 95 % 0 mm 81 W/m2
08:01 5.6 °C 4.9 °C 1023.2 hPa NNE 3.2 km/h 9.7 km/h 95 % 0 mm 86 W/m2
08:06 5.6 °C 4.9 °C 1023.2 hPa NNE 1.6 km/h 9.7 km/h 95 % 0 mm 109 W/m2
08:11 5.7 °C 4.9 °C 1023.2 hPa NNE 1.6 km/h 11.3 km/h 95 % 0 mm 95 W/m2
08:16 5.7 °C 4.8 °C 1023.2 hPa NNE 1.6 km/h 11.3 km/h 94 % 0 mm 105 W/m2
08:21 5.8 °C 4.9 °C 1023.2 hPa NNE 1.6 km/h 6.4 km/h 94 % 0 mm 118 W/m2
08:26 5.9 °C 5 °C 1023.6 hPa Calm   1.6 km/h 94 % 0 mm 105 W/m2
08:31 5.9 °C 4.8 °C 1023.6 hPa NNE 1.6 km/h 9.7 km/h 93 % 0 mm 123 W/m2
08:36 5.9 °C 4.8 °C 1023.6 hPa NNE 1.6 km/h 9.7 km/h 93 % 0 mm 111 W/m2
08:41 5.8 °C 4.6 °C 1023.6 hPa ENE 3.2 km/h 11.3 km/h 92 % 0 mm 135 W/m2
08:46 5.9 °C 4.6 °C 1023.6 hPa ENE 3.2 km/h 11.3 km/h 91 % 0 mm 151 W/m2
08:51 6 °C 4.5 °C 1023.6 hPa ENE 3.2 km/h 11.3 km/h 90 % 0 mm 144 W/m2
08:56 6.1 °C 4.6 °C 1023.6 hPa NE 4.8 km/h 11.3 km/h 90 % 0 mm 118 W/m2
09:01 6.1 °C 4.4 °C 1023.6 hPa NE 3.2 km/h 9.7 km/h 89 % 0 mm 146 W/m2
09:06 6.2 °C 4.3 °C 1023.6 hPa NE 4.8 km/h 12.9 km/h 88 % 0 mm 137 W/m2
09:11 6.2 °C 4.3 °C 1023.6 hPa ENE 3.2 km/h 12.9 km/h 88 % 0 mm 163 W/m2
09:16 6.3 °C 4.4 °C 1023.6 hPa East 1.6 km/h 8 km/h 88 % 0 mm 156 W/m2
09:21 6.4 °C 4.4 °C 1023.6 hPa East 1.6 km/h 8 km/h 87 % 0 mm 165 W/m2
09:26 6.6 °C 4.6 °C 1023.6 hPa East 1.6 km/h 6.4 km/h 87 % 0 mm 158 W/m2
09:31 6.7 °C 4.7 °C 1023.6 hPa Calm   3.2 km/h 87 % 0 mm 158 W/m2
09:36 6.7 °C 4.5 °C 1023.6 hPa Calm   6.4 km/h 86 % 0 mm 176 W/m2
09:41 6.8 °C 4.3 °C 1023.6 hPa ENE 1.6 km/h 6.4 km/h 84 % 0 mm 211 W/m2
09:46 6.9 °C 4.6 °C 1023.6 hPa ENE 1.6 km/h 8 km/h 85 % 0 mm 148 W/m2
09:51 7 °C 4.5 °C 1023.6 hPa ENE 1.6 km/h 8 km/h 84 % 0 mm 116 W/m2
09:56 6.9 °C 3.9 °C 1023.6 hPa East 3.2 km/h 11.3 km/h 81 % 0 mm 120 W/m2
10:01 6.9 °C 3.7 °C 1023.9 hPa ENE 4.8 km/h 12.9 km/h 80 % 0 mm 121 W/m2
10:06 6.8 °C 3.1 °C 1023.9 hPa NE 6.4 km/h 12.9 km/h 77 % 0 mm 121 W/m2
10:11 6.9 °C 3.2 °C 1023.9 hPa NE 4.8 km/h 12.9 km/h 77 % 0 mm 153 W/m2
10:16 6.9 °C 2.9 °C 1023.9 hPa NE 3.2 km/h 9.7 km/h 76 % 0 mm 155 W/m2
10:21 7 °C 3.1 °C 1023.9 hPa ENE 4.8 km/h 12.9 km/h 76 % 0 mm 178 W/m2
10:26 7.1 °C 3.2 °C 1023.9 hPa ENE 3.2 km/h 12.9 km/h 76 % 0 mm 199 W/m2
10:31 7.2 °C 3.1 °C 1023.9 hPa NE 3.2 km/h 9.7 km/h 75 % 0 mm 183 W/m2
10:36 7.2 °C 2.9 °C 1023.9 hPa NE 4.8 km/h 11.3 km/h 74 % 0 mm 183 W/m2
10:41 7.3 °C 3.2 °C 1023.9 hPa ENE 4.8 km/h 11.3 km/h 75 % 0 mm 214 W/m2
10:46 7.4 °C 3.3 °C 1023.9 hPa East 3.2 km/h 9.7 km/h 75 % 0 mm 227 W/m2
10:52 7.4 °C 2.9 °C 1023.9 hPa ENE 4.8 km/h 11.3 km/h 73 % 0 mm 223 W/m2
10:57 7.5 °C 2.9 °C 1023.9 hPa NE 4.8 km/h 11.3 km/h 73 % 0 mm 229 W/m2
11:02 7.6 °C 3.1 °C 1023.9 hPa NE 3.2 km/h 8 km/h 73 % 0 mm 207 W/m2
11:07 7.7 °C 3.2 °C 1024.3 hPa ENE 4.8 km/h 14.5 km/h 73 % 0 mm 200 W/m2
11:12 7.7 °C 2.9 °C 1024.3 hPa ENE 6.4 km/h 14.5 km/h 72 % 0 mm 200 W/m2
11:17 7.6 °C 3.1 °C 1024.3 hPa ENE 6.4 km/h 14.5 km/h 73 % 0 mm 195 W/m2
11:22 7.7 °C 3.3 °C 1024.3 hPa ENE 4.8 km/h 12.9 km/h 74 % 0 mm 207 W/m2
11:27 7.7 °C 3.2 °C 1024.3 hPa ENE 4.8 km/h 12.9 km/h 73 % 0 mm 250 W/m2
11:32 7.8 °C 3.1 °C 1024.3 hPa ENE 4.8 km/h 11.3 km/h 72 % 0 mm 271 W/m2
11:37 7.8 °C 3.1 °C 1024.3 hPa ENE 4.8 km/h 11.3 km/h 72 % 0 mm 250 W/m2
11:42 7.9 °C 3.2 °C 1024.3 hPa East 6.4 km/h 12.9 km/h 72 % 0 mm 239 W/m2
11:47 7.9 °C 2.9 °C 1024.3 hPa ENE 8 km/h 16.1 km/h 71 % 0 mm 229 W/m2
11:52 7.8 °C 2.9 °C 1024.3 hPa ENE 6.4 km/h 16.1 km/h 71 % 0 mm 197 W/m2
11:57 7.9 °C 3.2 °C 1024.3 hPa ENE 3.2 km/h 9.7 km/h 72 % 0 mm 185 W/m2
12:02 7.9 °C 2.8 °C 1024.3 hPa East 3.2 km/h 11.3 km/h 70 % 0 mm 199 W/m2
12:07 7.9 °C 2.9 °C 1024.3 hPa ENE 3.2 km/h 11.3 km/h 71 % 0 mm 216 W/m2
12:12 8.1 °C 3.3 °C 1024.3 hPa ENE 1.6 km/h 8 km/h 72 % 0 mm 262 W/m2
12:17 8.2 °C 2.7 °C 1024.3 hPa NE 3.2 km/h 9.7 km/h 68 % 0 mm 297 W/m2
12:22 8.3 °C 2.5 °C 1024.6 hPa NNE 3.2 km/h 9.7 km/h 67 % 0 mm 281 W/m2
12:27 8.5 °C 2.9 °C 1024.6 hPa NE 3.2 km/h 9.7 km/h 68 % 0 mm 264 W/m2
12:32 8.5 °C 2.7 °C 1024.6 hPa ENE 3.2 km/h 9.7 km/h 67 % 0 mm 269 W/m2
12:37 8.6 °C 2.8 °C 1024.3 hPa East 3.2 km/h 9.7 km/h 67 % 0 mm 302 W/m2
12:42 8.6 °C 2.6 °C 1024.6 hPa East 3.2 km/h 9.7 km/h 66 % 0 mm 366 W/m2
12:47 8.6 °C 2.4 °C 1024.3 hPa ENE 3.2 km/h 9.7 km/h 65 % 0 mm 431 W/m2
12:52 8.8 °C 2.6 °C 1024.6 hPa North 3.2 km/h 9.7 km/h 65 % 0 mm 401 W/m2
12:57 8.9 °C 2.4 °C 1024.3 hPa NNE 4.8 km/h 11.3 km/h 64 % 0 mm 338 W/m2
13:02 8.9 °C 2.4 °C 1024.3 hPa NE 4.8 km/h 11.3 km/h 64 % 0 mm 330 W/m2
13:07 8.8 °C 2.3 °C 1024.3 hPa ENE 3.2 km/h 9.7 km/h 64 % 0 mm 336 W/m2
13:12 8.9 °C 2.9 °C 1024.6 hPa ENE 1.6 km/h 9.7 km/h 66 % 0 mm 304 W/m2
13:17 9 °C 2.8 °C 1024.6 hPa NE 4.8 km/h 11.3 km/h 65 % 0 mm 295 W/m2
13:18 9 °C 3 °C 1024.6 hPa NE 4.8 km/h 11.3 km/h 66 % 0 mm 297 W/m2
13:23 9.1 °C 2.9 °C 1024.6 hPa ENE 4.8 km/h 12.9 km/h 65 % 0 mm 302 W/m2
13:28 8.9 °C 2.2 °C 1024.6 hPa ENE 3.2 km/h 12.9 km/h 63 % 0 mm 304 W/m2
13:33 9 °C 2.3 °C 1024.6 hPa NE 3.2 km/h 9.7 km/h 63 % 0 mm 299 W/m2
13:38 9.1 °C 2.4 °C 1024.6 hPa NE 1.6 km/h 9.7 km/h 63 % 0 mm 269 W/m2
13:43 9.3 °C 2.8 °C 1024.6 hPa NNW 1.6 km/h 9.7 km/h 64 % 0 mm 257 W/m2
13:49 9.4 °C 2.7 °C 1024.6 hPa North 3.2 km/h 11.3 km/h 63 % 0 mm 265 W/m2
13:54 9.5 °C 2.6 °C 1024.6 hPa NNW 6.4 km/h 12.9 km/h 62 % 0 mm 251 W/m2
13:59 9.6 °C 2.7 °C 1024.6 hPa NW 3.2 km/h 12.9 km/h 62 % 0 mm 265 W/m2
14:04 9.8 °C 2.6 °C 1024.6 hPa NNW 1.6 km/h 11.3 km/h 61 % 0 mm 578 W/m2
14:09 9.9 °C 2.5 °C 1024.6 hPa NNW 3.2 km/h 11.3 km/h 60 % 0 mm 888 W/m2
14:14 10.3 °C 3.3 °C 1024.6 hPa West 3.2 km/h 11.3 km/h 62 % 0 mm 939 W/m2
14:19 10.6 °C 3.2 °C 1024.6 hPa West 6.4 km/h 16.1 km/h 60 % 0 mm 881 W/m2
14:24 10.9 °C 3.4 °C 1024.6 hPa West 8 km/h 16.1 km/h 60 % 0 mm 1083 W/m2
14:29 11.3 °C 3.6 °C 1024.6 hPa West 9.7 km/h 17.7 km/h 59 % 0 mm 1025 W/m2
14:34 11.5 °C 3 °C 1024.6 hPa WNW 11.3 km/h 19.3 km/h 56 % 0 mm 526 W/m2
14:39 11.6 °C 3.1 °C 1024.6 hPa WNW 11.3 km/h 19.3 km/h 56 % 0 mm 1076 W/m2
14:44 11.9 °C 3.1 °C 1024.6 hPa WNW 11.3 km/h 17.7 km/h 55 % 0 mm 1063 W/m2
14:49 11.8 °C 2.8 °C 1024.6 hPa West 11.3 km/h 20.9 km/h 54 % 0 mm 519 W/m2
14:54 11.8 °C 2.8 °C 1024.6 hPa West 11.3 km/h 20.9 km/h 54 % 0 mm 1049 W/m2
14:59 11.8 °C 3.1 °C 1024.6 hPa WSW 9.7 km/h 19.3 km/h 55 % 0 mm 425 W/m2
15:04 11.6 °C 3.1 °C 1024.6 hPa WSW 9.7 km/h 17.7 km/h 56 % 0 mm 394 W/m2
15:09 11.7 °C 2.9 °C 1024.6 hPa West 8 km/h 17.7 km/h 55 % 0 mm 237 W/m2
15:14 11.6 °C 2.8 °C 1024.6 hPa WNW 6.4 km/h 14.5 km/h 55 % 0 mm 185 W/m2
15:19 11.4 °C 2.7 °C 1024.6 hPa WNW 8 km/h 17.7 km/h 55 % 0 mm 183 W/m2
15:24 11.2 °C 2.7 °C 1024.6 hPa WNW 9.7 km/h 17.7 km/h 56 % 0 mm 200 W/m2
15:29 11 °C 2.8 °C 1024.6 hPa NW 9.7 km/h 16.1 km/h 57 % 0 mm 227 W/m2
15:34 10.8 °C 2.4 °C 1024.6 hPa NNW 6.4 km/h 16.1 km/h 56 % 0 mm 237 W/m2
15:39 10.6 °C 2.4 °C 1024.6 hPa NNW 4.8 km/h 11.3 km/h 57 % 0 mm 248 W/m2
15:44 10.7 °C 2.3 °C 1024.6 hPa NW 4.8 km/h 11.3 km/h 56 % 0 mm 244 W/m2
15:46 10.7 °C 2.5 °C 1024.6 hPa NW 4.8 km/h 11.3 km/h 57 % 0 mm 244 W/m2
15:51 10.7 °C 2.5 °C 1024.6 hPa NW 6.4 km/h 12.9 km/h 57 % 0 mm 234 W/m2
15:56 10.7 °C 2.5 °C 1024.6 hPa NW 6.4 km/h 12.9 km/h 57 % 0 mm 220 W/m2
16:01 10.7 °C 2.3 °C 1024.6 hPa NW 4.8 km/h 12.9 km/h 56 % 0 mm 218 W/m2
16:06 10.7 °C 2.5 °C 1024.9 hPa NW 6.4 km/h 12.9 km/h 57 % 0 mm 225 W/m2
16:11 10.8 °C 2.6 °C 1024.6 hPa NW 4.8 km/h 12.9 km/h 57 % 0 mm 216 W/m2
16:16 10.8 °C 2.6 °C 1024.6 hPa WNW 6.4 km/h 14.5 km/h 57 % 0 mm 213 W/m2
16:21 10.8 °C 2.6 °C 1024.6 hPa WNW 8 km/h 14.5 km/h 57 % 0 mm 216 W/m2
16:26 10.8 °C 2.1 °C 1024.6 hPa WNW 8 km/h 14.5 km/h 55 % 0 mm 218 W/m2
16:31 10.7 °C 2.8 °C 1024.6 hPa WNW 4.8 km/h 12.9 km/h 58 % 0 mm 246 W/m2
16:37 10.7 °C 2.5 °C 1024.6 hPa WNW 4.8 km/h 12.9 km/h 57 % 0 mm 195 W/m2
16:42 10.6 °C 2.7 °C 1024.6 hPa West 4.8 km/h 11.3 km/h 58 % 0 mm 171 W/m2
16:47 10.7 °C 3 °C 1024.6 hPa WNW 3.2 km/h 9.7 km/h 59 % 0 mm 202 W/m2
16:52 10.7 °C 2.8 °C 1024.6 hPa NW 3.2 km/h 9.7 km/h 58 % 0 mm 241 W/m2
16:57 10.8 °C 2.8 °C 1024.6 hPa WNW 6.4 km/h 16.1 km/h 58 % 0 mm 218 W/m2
17:02 10.9 °C 2.9 °C 1024.6 hPa WNW 8 km/h 16.1 km/h 58 % 0 mm 461 W/m2
17:07 10.9 °C 2.7 °C 1024.6 hPa WNW 6.4 km/h 16.1 km/h 57 % 0 mm 429 W/m2
17:12 11.1 °C 2.7 °C 1024.6 hPa West 6.4 km/h 9.7 km/h 56 % 0 mm 413 W/m2
17:17 11.2 °C 2.5 °C 1024.3 hPa West 3.2 km/h 9.7 km/h 55 % 0 mm 381 W/m2
17:22 11.5 °C 2.8 °C 1024.6 hPa West 1.6 km/h 8 km/h 55 % 0 mm 387 W/m2
17:27 11.7 °C 2.4 °C 1024.6 hPa West 3.2 km/h 9.7 km/h 53 % 0 mm 371 W/m2
17:32 11.9 °C 2.3 °C 1024.6 hPa WNW 3.2 km/h 9.7 km/h 52 % 0 mm 352 W/m2
17:37 12 °C 2.7 °C 1024.6 hPa WNW 3.2 km/h 9.7 km/h 53 % 0 mm 346 W/m2
17:42 12.1 °C 2.6 °C 1024.6 hPa WNW 4.8 km/h 12.9 km/h 52 % 0 mm 362 W/m2
17:47 12.2 °C 2.1 °C 1024.6 hPa NW 4.8 km/h 12.9 km/h 50 % 0 mm 411 W/m2
17:49 12.2 °C 2.3 °C 1024.6 hPa NW 6.4 km/h 12.9 km/h 51 % 0 mm 172 W/m2
17:54 12 °C 1.6 °C 1024.6 hPa NNW 6.4 km/h 14.5 km/h 49 % 0 mm 123 W/m2
17:59 11.6 °C 1.8 °C 1024.6 hPa NNW 6.4 km/h 14.5 km/h 51 % 0 mm 109 W/m2
18:04 11.4 °C 2.4 °C 1024.6 hPa NW 3.2 km/h 11.3 km/h 54 % 0 mm 105 W/m2
18:09 11.3 °C 2.3 °C 1024.6 hPa NW 3.2 km/h 11.3 km/h 54 % 0 mm 97 W/m2
18:14 11.2 °C 2.5 °C 1024.6 hPa NW 3.2 km/h 11.3 km/h 55 % 0 mm 81 W/m2
18:24 11.1 °C 2.4 °C 1024.6 hPa NW 3.2 km/h 9.7 km/h 55 % 0 mm 56 W/m2
18:29 10.9 °C 2.4 °C 1024.6 hPa NW 4.8 km/h 9.7 km/h 56 % 0 mm 44 W/m2
18:34 10.7 °C 2 °C 1024.6 hPa WNW 3.2 km/h 9.7 km/h 55 % 0 mm 39 W/m2
18:39 10.5 °C 2.1 °C 1024.9 hPa NNW 3.2 km/h 9.7 km/h 56 % 0 mm 28 W/m2
18:44 10.3 °C 2.2 °C 1024.9 hPa North 1.6 km/h 9.7 km/h 57 % 0 mm 37 W/m2
18:49 10.3 °C 1.9 °C 1024.6 hPa Calm   3.2 km/h 56 % 0 mm 40 W/m2
18:54 10.2 °C 2.1 °C 1024.6 hPa North 1.6 km/h 6.4 km/h 57 % 0 mm 35 W/m2
18:59 10.1 °C 2.2 °C 1024.6 hPa North 1.6 km/h 6.4 km/h 58 % 0 mm 32 W/m2
19:04 10.1 °C 2.2 °C 1024.9 hPa North 1.6 km/h 8 km/h 58 % 0 mm 26 W/m2
19:09 10 °C 1.9 °C 1024.9 hPa NNE 3.2 km/h 9.7 km/h 57 % 0 mm 23 W/m2
19:14 9.9 °C 2 °C 1024.9 hPa NE 3.2 km/h 9.7 km/h 58 % 0 mm 21 W/m2
19:19 9.8 °C 1.9 °C 1024.9 hPa NE 3.2 km/h 9.7 km/h 58 % 0 mm 18 W/m2
19:24 9.7 °C 1.8 °C 1024.9 hPa NE 1.6 km/h 9.7 km/h 58 % 0 mm 14 W/m2
19:29 9.7 °C 2.1 °C 1024.9 hPa Calm   4.8 km/h 59 % 0 mm 9 W/m2
19:34 9.6 °C 1.9 °C 1025.3 hPa Calm   3.2 km/h 59 % 0 mm 7 W/m2
19:39 9.6 °C 2.2 °C 1025.3 hPa Calm   4.8 km/h 60 % 0 mm 7 W/m2
19:44 9.4 °C 1.8 °C 1025.3 hPa NE 3.2 km/h 11.3 km/h 59 % 0 mm 5 W/m2
19:49 9.4 °C 2.3 °C 1025.3 hPa NE 3.2 km/h 11.3 km/h 61 % 0 mm 0 W/m2
19:54 9.3 °C 1.9 °C 1025.3 hPa NE 1.6 km/h 6.4 km/h 60 % 0 mm 0 W/m2
19:59 9.3 °C 2.2 °C 1025.3 hPa Calm   4.8 km/h 61 % 0 mm 0 W/m2
20:04 9.2 °C 2.3 °C 1025.3 hPa Calm   3.2 km/h 62 % 0 mm 0 W/m2
20:09 9.2 °C 2.1 °C 1025.3 hPa Calm   3.2 km/h 61 % 0 mm 0 W/m2
20:14 9.1 °C 1.9 °C 1025.6 hPa NE 1.6 km/h 6.4 km/h 61 % 0 mm 0 W/m2
20:19 9.1 °C 2.2 °C 1025.6 hPa NE 1.6 km/h 6.4 km/h 62 % 0 mm 0 W/m2
20:30 9.1 °C 2.4 °C 1025.6 hPa ENE 1.6 km/h 9.7 km/h 63 % 0 mm 0 W/m2
20:35 8.9 °C 2.7 °C 1025.6 hPa ENE 3.2 km/h 9.7 km/h 65 % 0 mm 0 W/m2
20:40 8.8 °C 2.8 °C 1025.6 hPa ENE 3.2 km/h 9.7 km/h 66 % 0 mm 0 W/m2
20:45 8.7 °C 2.9 °C 1026 hPa East 1.6 km/h 8 km/h 67 % 0 mm 0 W/m2
20:50 8.6 °C 3.2 °C 1026 hPa East 1.6 km/h 8 km/h 69 % 0 mm 0 W/m2
20:55 8.6 °C 3.2 °C 1026 hPa East 1.6 km/h 8 km/h 69 % 0 mm 0 W/m2
21:00 8.5 °C 3.3 °C 1026.3 hPa ESE 1.6 km/h 9.7 km/h 70 % 0 mm 0 W/m2
21:05 8.4 °C 3.4 °C 1026.3 hPa ESE 1.6 km/h 9.7 km/h 71 % 0 mm 0 W/m2
21:10 8.4 °C 3.7 °C 1026.3 hPa Calm   6.4 km/h 72 % 0 mm 0 W/m2
21:15 8.3 °C 3.6 °C 1026.3 hPa Calm     72 % 0 mm 0 W/m2
21:20 8.3 °C 3.7 °C 1026.3 hPa Calm     73 % 0 mm 0 W/m2
21:25 8.2 °C 3.7 °C 1026.3 hPa Calm     73 % 0 mm 0 W/m2
21:30 8.2 °C 3.7 °C 1026.3 hPa Calm     73 % 0 mm 0 W/m2
21:35 8.1 °C 3.6 °C 1026.3 hPa Calm     73 % 0 mm 0 W/m2
21:40 8.1 °C 3.7 °C 1026.3 hPa Calm     74 % 0 mm 0 W/m2
21:45 8 °C 3.7 °C 1026.6 hPa Calm   4.8 km/h 74 % 0 mm 0 W/m2
21:50 7.9 °C 3.7 °C 1026.6 hPa SE 1.6 km/h 4.8 km/h 75 % 0 mm 0 W/m2
21:55 7.9 °C 3.9 °C 1026.6 hPa Calm   3.2 km/h 76 % 0 mm 0 W/m2
22:00 7.9 °C 3.9 °C 1026.6 hPa Calm   3.2 km/h 76 % 0 mm 0 W/m2
22:05 7.8 °C 3.8 °C 1026.6 hPa NW 3.2 km/h 11.3 km/h 76 % 0 mm 0 W/m2
22:10 7.9 °C 3.9 °C 1026.6 hPa NW 4.8 km/h 11.3 km/h 76 % 0 mm 0 W/m2
22:15 7.9 °C 3.9 °C 1026.6 hPa NW 3.2 km/h 9.7 km/h 76 % 0 mm 0 W/m2
22:20 7.8 °C 4 °C 1026.6 hPa NW 3.2 km/h 8 km/h 77 % 0 mm 0 W/m2
22:25 7.8 °C 4 °C 1026.6 hPa NW 3.2 km/h 8 km/h 77 % 0 mm 0 W/m2
22:30 7.8 °C 4 °C 1026.6 hPa NW 3.2 km/h 9.7 km/h 77 % 0 mm 0 W/m2
22:35 7.8 °C 4 °C 1026.6 hPa NW 3.2 km/h 9.7 km/h 77 % 0 mm 0 W/m2
22:40 7.8 °C 4 °C 1027 hPa NNW 3.2 km/h 8 km/h 77 % 0 mm 0 W/m2
22:45 7.8 °C 4.2 °C 1027 hPa NNW 4.8 km/h 11.3 km/h 78 % 0 mm 0 W/m2
22:50 7.7 °C 4.1 °C 1027 hPa NNW 4.8 km/h 11.3 km/h 78 % 0 mm 0 W/m2
22:55 7.7 °C 4.3 °C 1027 hPa NW 6.4 km/h 14.5 km/h 79 % 0 mm 0 W/m2
23:00 7.7 °C 4.3 °C 1027 hPa NNW 8 km/h 17.7 km/h 79 % 0 mm 0 W/m2
23:05 7.7 °C 4.3 °C 1027 hPa NNW 9.7 km/h 17.7 km/h 79 % 0 mm 0 W/m2
23:10 7.6 °C 4.4 °C 1027.3 hPa NNW 9.7 km/h 16.1 km/h 80 % 0 mm 0 W/m2
23:16 7.6 °C 4.4 °C 1027.3 hPa North 9.7 km/h 16.1 km/h 80 % 0 mm 0 W/m2
23:21 7.6 °C 4.4 °C 1027.3 hPa North 8 km/h 16.1 km/h 80 % 0 mm 0 W/m2
23:26 7.5 °C 4.3 °C 1027.3 hPa North 6.4 km/h 16.1 km/h 80 % 0 mm 0 W/m2
23:31 7.5 °C 4.1 °C 1027.7 hPa North 9.7 km/h 30.6 km/h 79 % 0 mm 0 W/m2
23:36 7.3 °C 3.7 °C 1027.7 hPa North 16.1 km/h 35.4 km/h 78 % 0 mm 0 W/m2
23:41 7 °C 3.6 °C 1028 hPa North 17.7 km/h 35.4 km/h 79 % 0 mm 0 W/m2
23:46 6.8 °C 3.8 °C 1028 hPa North 16.1 km/h 32.2 km/h 81 % 0 mm 0 W/m2
23:51 6.7 °C 3.7 °C 1028 hPa North 12.9 km/h 29 km/h 81 % 0 mm 0 W/m2
23:56 6.6 °C 3.7 °C 1028 hPa North 12.9 km/h 25.7 km/h 82 % 0 mm 0 W/m2
Delerius-Weather
Compliments of Weather Underground - 2.25 mb

Data updates at regular intervals.